Time;durP1;ratioP1;P1;durP2;ratioP2;P2;SDS_P1;SDS_P2;PMS_P1;PMS_P2;Temp;Humidity;BMP_temperature;BMP_pressure;BME280_temperature;BME280_humidity;BME280_pressure;Samples;Min_cycle;Max_cycle;Signal;HPM_P1;HPM_P2
2021/01/24 00:00:14;;;;;;;40.20;24.70;;;;;;;4.41;73.02;96637.48;1805673;79;20976;-62
2021/01/24 00:02:42;;;;;;;45.63;27.48;;;;;;;4.39;73.16;96638.09;1805765;79;21000;-63
2021/01/24 00:05:10;;;;;;;51.77;32.55;;;;;;;4.36;73.25;96627.68;1805776;79;20897;-62
2021/01/24 00:07:38;;;;;;;57.17;33.53;;;;;;;4.32;73.33;96625.25;1805784;79;21339;-62
2021/01/24 00:10:07;;;;;;;51.02;31.17;;;;;;;4.29;73.29;96626.80;1805719;78;21438;-62
2021/01/24 00:12:34;;;;;;;47.55;28.23;;;;;;;4.27;73.29;96620.75;1805744;79;20968;-62
2021/01/24 00:15:03;;;;;;;32.03;21.60;;;;;;;4.24;73.33;96630.27;1805733;79;20999;-62
2021/01/24 00:17:31;;;;;;;24.32;19.48;;;;;;;4.22;73.41;96615.39;1805643;79;20905;-62
2021/01/24 00:20:01;;;;;;;23.12;18.07;;;;;;;4.20;73.59;96619.48;1782257;80;20875;-62
2021/01/24 00:22:30;;;;;;;22.75;19.82;;;;;;;4.18;73.73;96622.73;1782263;80;21317;-62
2021/01/24 00:24:58;;;;;;;23.02;18.77;;;;;;;4.15;73.88;96624.28;1749449;80;20954;-60
2021/01/24 00:27:26;;;;;;;25.80;19.17;;;;;;;4.13;74.02;96624.86;1782212;80;20986;-60
2021/01/24 00:29:54;;;;;;;28.17;19.37;;;;;;;4.11;73.98;96624.97;1782143;80;20999;-62
2021/01/24 00:32:21;;;;;;;29.67;20.50;;;;;;;4.09;73.91;96618.08;1782389;80;21338;-61
2021/01/24 00:34:50;;;;;;;23.42;17.73;;;;;;;4.06;74.03;96628.92;1782207;80;22320;-61
2021/01/24 00:37:18;;;;;;;19.98;17.87;;;;;;;4.02;74.07;96622.13;1782131;80;20907;-61
2021/01/24 00:39:46;;;;;;;27.35;19.90;;;;;;;3.98;74.17;96622.34;1782167;80;20966;-62
2021/01/24 00:42:14;;;;;;;26.00;20.20;;;;;;;3.95;74.28;96622.56;1782255;80;21003;-60
2021/01/24 00:44:43;;;;;;;25.23;20.02;;;;;;;3.91;74.41;96614.45;1782233;80;20994;-61
2021/01/24 00:47:10;;;;;;;25.02;20.20;;;;;;;3.88;74.50;96618.66;1782196;80;21160;-61
2021/01/24 00:49:38;;;;;;;23.83;19.82;;;;;;;3.84;74.67;96615.84;1782141;80;21044;-61
2021/01/24 00:52:06;;;;;;;24.18;20.52;;;;;;;3.79;74.72;96611.34;1782118;80;20990;-61
2021/01/24 00:54:35;;;;;;;26.48;21.48;;;;;;;3.72;74.82;96616.23;1782243;80;21006;-61
2021/01/24 00:57:02;;;;;;;26.17;21.57;;;;;;;3.68;74.87;96605.94;1782330;80;21460;-60
2021/01/24 00:59:30;;;;;;;28.10;21.75;;;;;;;3.65;75.04;96604.83;1782207;80;21139;-61
2021/01/24 01:01:57;;;;;;;38.28;23.90;;;;;;;3.61;75.35;96602.84;1782086;80;20895;-60
2021/01/24 01:04:25;;;;;;;32.35;23.80;;;;;;;3.56;75.65;96603.19;1782260;80;20998;-61
2021/01/24 01:06:53;;;;;;;28.80;22.65;;;;;;;3.53;75.84;96595.44;1782185;80;20995;-61
2021/01/24 01:09:20;;;;;;;32.53;25.10;;;;;;;3.51;75.98;96596.49;1782177;80;20911;-61
2021/01/24 01:11:47;;;;;;;35.48;25.72;;;;;;;3.48;76.01;96596.70;1782169;80;21369;-61
2021/01/24 01:14:15;;;;;;;30.32;22.73;;;;;;;3.44;76.35;96593.42;1782270;80;20986;-61
2021/01/24 01:16:43;;;;;;;30.77;24.02;;;;;;;3.43;76.38;96583.27;1782213;80;21002;-62
2021/01/24 01:19:11;;;;;;;35.48;26.30;;;;;;;3.43;76.39;96589.06;1806917;78;20904;-61
2021/01/24 01:21:41;;;;;;;29.40;23.75;;;;;;;3.40;76.68;96583.96;1828772;78;20915;-61
2021/01/24 01:24:08;;;;;;;36.85;25.60;;;;;;;3.39;76.78;96571.64;1828664;78;21424;-61
2021/01/24 01:26:36;;;;;;;35.78;25.08;;;;;;;3.38;76.80;96565.98;1828644;78;20956;-60
2021/01/24 01:29:04;;;;;;;36.73;25.72;;;;;;;3.38;76.78;96565.98;1828630;78;21006;-61
2021/01/24 01:31:31;;;;;;;30.52;25.43;;;;;;;3.37;76.82;96573.56;1828729;78;20927;-62
2021/01/24 01:33:59;;;;;;;34.95;26.65;;;;;;;3.38;76.96;96567.31;1828638;78;20904;-61
2021/01/24 01:36:27;;;;;;;37.13;26.33;;;;;;;3.37;77.11;96573.07;1828666;78;21181;-61
2021/01/24 01:38:55;;;;;;;39.75;27.75;;;;;;;3.38;77.24;96569.96;1828578;78;20928;-61
2021/01/24 01:41:31;;;;;;;34.78;25.02;;;;;;;3.37;77.29;96569.58;1828732;78;21026;-62
2021/01/24 01:44:06;;;;;;;38.05;26.55;;;;;;;3.38;77.32;96562.00;1828578;78;20864;-61
2021/01/24 01:46:33;;;;;;;37.25;27.05;;;;;;;3.41;77.28;96567.09;1828923;78;21413;-62
2021/01/24 01:49:01;;;;;;;34.38;26.02;;;;;;;3.41;77.26;96561.79;1828734;78;21371;-61
2021/01/24 01:51:29;;;;;;;39.53;27.07;;;;;;;3.44;77.34;96560.25;1828639;78;20928;-61
2021/01/24 01:53:56;;;;;;;36.83;26.68;;;;;;;3.44;77.40;96555.78;1828681;78;20991;-61
2021/01/24 01:56:24;;;;;;;38.70;28.00;;;;;;;3.47;77.40;96560.03;1828587;78;20975;-61
2021/01/24 01:58:51;;;;;;;38.63;28.50;;;;;;;3.47;77.27;96556.05;1828656;78;20991;-61
2021/01/24 02:01:37;;;;;;;44.48;29.52;;;;;;;3.48;77.25;96560.38;1828717;78;21344;-61
2021/01/24 02:04:19;;;;;;;35.68;26.85;;;;;;;3.51;77.25;96552.20;1828635;78;20990;-61
2021/01/24 02:07:02;;;;;;;36.85;26.17;;;;;;;3.53;77.24;96549.44;1828654;78;20904;-61
2021/01/24 02:09:42;;;;;;;41.05;28.02;;;;;;;3.53;77.17;96547.66;1828603;78;20995;-61
2021/01/24 02:12:34;;;;;;;37.28;27.60;;;;;;;3.55;77.02;96548.39;1828764;78;20900;-61
2021/01/24 02:15:08;;;;;;;36.13;27.60;;;;;;;3.57;76.88;96545.14;1828418;78;39911;-61
2021/01/24 02:17:38;;;;;;;37.78;27.58;;;;;;;3.58;76.88;96544.68;1828035;78;20999;-61
2021/01/24 02:20:26;;;;;;;34.18;26.37;;;;;;;3.59;76.80;96551.17;1810700;78;20968;-62
2021/01/24 02:22:53;;;;;;;38.53;27.32;;;;;;;3.59;76.83;96548.52;1805782;79;20976;-62
2021/01/24 02:25:39;;;;;;;36.42;26.95;;;;;;;3.61;76.86;96545.30;1805708;79;21382;-62
2021/01/24 02:28:30;;;;;;;40.30;27.42;;;;;;;3.60;76.89;96547.58;1805679;79;21114;-62
2021/01/24 02:30:58;;;;;;;42.70;26.55;;;;;;;3.63;76.93;96539.88;1803545;79;21489;-63
2021/01/24 02:33:27;;;;;;;30.85;24.98;;;;;;;3.62;76.89;96535.03;1805735;79;21513;-62
2021/01/24 02:35:58;;;;;;;35.08;24.77;;;;;;;3.64;76.85;96538.07;1805699;79;21418;-62
2021/01/24 02:38:26;;;;;;;31.75;24.85;;;;;;;3.65;76.81;96537.12;1805693;79;21051;-60
2021/01/24 02:40:56;;;;;;;32.42;24.18;;;;;;;3.68;76.78;96524.95;1805643;79;21197;-61
2021/01/24 02:43:24;;;;;;;35.90;26.07;;;;;;;3.69;76.83;96526.17;1805627;79;20976;-62
2021/01/24 02:45:53;;;;;;;34.33;26.35;;;;;;;3.71;76.77;96522.08;1805663;79;20988;-62
2021/01/24 02:48:20;;;;;;;31.55;25.05;;;;;;;3.72;76.71;96527.73;1805641;79;20940;-62
2021/01/24 02:50:48;;;;;;;36.65;28.07;;;;;;;3.74;76.70;96531.16;1805572;79;20900;-61
2021/01/24 02:53:16;;;;;;;32.48;26.05;;;;;;;3.74;76.64;96517.88;1805725;79;21083;-62
2021/01/24 02:55:44;;;;;;;35.40;25.32;;;;;;;3.73;76.55;96514.36;1805597;79;20932;-62
2021/01/24 02:58:11;;;;;;;35.55;24.60;;;;;;;3.75;76.48;96517.77;1805659;79;20901;-62
2021/01/24 03:00:39;;;;;;;29.37;23.50;;;;;;;3.78;76.47;96519.34;1805525;79;21335;-62
2021/01/24 03:03:07;;;;;;;47.27;30.97;;;;;;;3.79;76.54;96514.41;1805761;79;20897;-62
2021/01/24 03:05:35;;;;;;;67.42;39.48;;;;;;;3.80;76.55;96518.77;1805696;79;21625;-62
2021/01/24 03:08:03;;;;;;;84.50;53.30;;;;;;;3.83;76.50;96517.19;1805586;79;20968;-62
2021/01/24 03:10:31;;;;;;;80.22;48.92;;;;;;;3.85;76.47;96519.28;1805680;79;20928;-62
2021/01/24 03:13:26;;;;;;;68.87;40.30;;;;;;;3.86;76.42;96516.13;1805671;79;20913;-62
2021/01/24 03:15:54;;;;;;;64.58;36.45;;;;;;;3.87;76.37;96505.40;1805734;79;20964;-61
2021/01/24 03:18:24;;;;;;;46.80;30.65;;;;;;;3.91;76.35;96506.88;1805869;79;21246;-60
2021/01/24 03:20:54;;;;;;;38.40;28.92;;;;;;;3.93;76.35;96504.95;1814578;79;20975;-61
2021/01/24 03:23:22;;;;;;;35.48;25.82;;;;;;;3.97;76.30;96506.89;1814916;79;21453;-61
2021/01/24 03:25:49;;;;;;;29.87;23.65;;;;;;;3.99;76.21;96497.03;1814959;79;20920;-61
2021/01/24 03:28:16;;;;;;;32.08;24.95;;;;;;;4.02;76.18;96494.61;1814993;79;20967;-61
2021/01/24 03:30:49;;;;;;;29.72;23.87;;;;;;;4.04;76.13;96497.53;1814913;79;21236;-62
2021/01/24 03:33:16;;;;;;;31.75;24.12;;;;;;;4.05;76.02;96494.38;1814872;79;20975;-62
2021/01/24 03:35:45;;;;;;;28.12;23.27;;;;;;;4.06;75.96;96492.11;1814884;79;20995;-61
2021/01/24 03:38:12;;;;;;;31.70;24.25;;;;;;;4.09;75.85;96487.89;1815001;79;21007;-62
2021/01/24 03:40:39;;;;;;;31.90;24.07;;;;;;;4.12;75.92;96484.52;1814865;79;20920;-61
2021/01/24 03:43:07;;;;;;;33.42;25.40;;;;;;;4.14;76.03;96479.09;1814879;78;21339;-62
2021/01/24 03:45:35;;;;;;;31.55;22.52;;;;;;;4.16;76.02;96482.02;1814867;79;20980;-61
2021/01/24 03:48:05;;;;;;;26.00;22.35;;;;;;;4.19;76.08;96482.25;1814927;79;20968;-61
2021/01/24 03:50:32;;;;;;;28.98;23.70;;;;;;;4.21;76.06;96476.36;1814805;79;21688;-61
2021/01/24 03:53:00;;;;;;;31.80;21.68;;;;;;;4.24;76.07;96472.61;1814999;79;20900;-61
2021/01/24 03:55:27;;;;;;;31.02;22.15;;;;;;;4.28;76.00;96471.43;1814883;79;21341;-61
2021/01/24 03:57:55;;;;;;;22.48;19.62;;;;;;;4.31;75.89;96464.06;1814820;79;20928;-61
2021/01/24 04:00:24;;;;;;;22.00;18.30;;;;;;;4.37;75.90;96467.22;1814873;79;21000;-61
2021/01/24 04:02:51;;;;;;;22.82;18.67;;;;;;;4.40;75.87;96457.69;1814937;79;20865;-61
2021/01/24 04:05:19;;;;;;;23.62;18.67;;;;;;;4.42;75.81;96454.45;1814835;79;20904;-61
2021/01/24 04:07:47;;;;;;;26.25;18.77;;;;;;;4.45;75.74;96452.89;1814929;79;21094;-61
2021/01/24 04:10:14;;;;;;;25.32;20.12;;;;;;;4.50;75.65;96457.37;1814848;79;20929;-61
2021/01/24 04:12:42;;;;;;;25.80;19.17;;;;;;;4.51;75.52;96451.09;1814918;79;20913;-61
2021/01/24 04:15:11;;;;;;;22.55;18.30;;;;;;;4.53;75.39;96449.16;1814833;79;20869;-60
2021/01/24 04:17:38;;;;;;;23.18;19.30;;;;;;;4.58;75.28;96460.28;1814839;79;20924;-60
2021/01/24 04:20:08;;;;;;;24.85;19.48;;;;;;;4.60;75.18;96447.71;1810253;79;21373;-62
2021/01/24 04:22:36;;;;;;;23.32;18.48;;;;;;;4.63;75.08;96447.97;1805672;79;20984;-60
2021/01/24 04:25:05;;;;;;;24.05;18.55;;;;;;;4.64;75.08;96451.84;1805783;79;20972;-63
2021/01/24 04:27:33;;;;;;;21.57;18.12;;;;;;;4.66;75.04;96447.24;1805756;79;21073;-61
2021/01/24 04:30:01;;;;;;;25.12;18.42;;;;;;;4.67;75.07;96446.29;1805770;79;20920;-61
2021/01/24 04:32:29;;;;;;;31.37;19.00;;;;;;;4.68;75.07;96438.69;1805753;79;21364;-61
2021/01/24 04:34:56;;;;;;;20.85;18.62;;;;;;;4.70;75.01;96438.08;1805867;79;21403;-61
2021/01/24 04:37:24;;;;;;;24.67;19.32;;;;;;;4.75;74.93;96436.89;1805774;79;20992;-62
2021/01/24 04:39:53;;;;;;;24.77;19.62;;;;;;;4.76;74.95;96433.24;1805650;78;21039;-63
2021/01/24 04:42:20;;;;;;;25.23;20.08;;;;;;;4.79;74.96;96427.20;1805820;79;20861;-61
2021/01/24 04:44:48;;;;;;;25.12;18.95;;;;;;;4.79;74.91;96428.52;1805780;79;21127;-61
2021/01/24 04:47:16;;;;;;;27.98;20.95;;;;;;;4.81;74.91;96429.27;1781307;79;20984;-61
2021/01/24 04:49:45;;;;;;;25.80;19.80;;;;;;;4.82;74.81;96430.11;1805674;79;20920;-61
2021/01/24 04:52:12;;;;;;;26.70;20.15;;;;;;;4.82;74.69;96426.13;1805742;79;21059;-62
2021/01/24 04:54:41;;;;;;;28.47;20.43;;;;;;;4.81;74.67;96415.11;1805797;79;20897;-61
2021/01/24 04:57:11;;;;;;;24.43;18.35;;;;;;;4.84;74.70;96417.53;1805778;79;21358;-61
2021/01/24 04:59:40;;;;;;;24.70;19.15;;;;;;;4.83;74.75;96418.52;1805639;79;20936;-61
2021/01/24 05:02:09;;;;;;;24.50;19.55;;;;;;;4.84;74.87;96429.50;1805781;79;20909;-61
2021/01/24 05:04:37;;;;;;;26.80;20.88;;;;;;;4.83;74.89;96429.99;1805665;79;20968;-60
2021/01/24 05:07:04;;;;;;;23.38;19.67;;;;;;;4.82;74.87;96428.28;1805875;79;20925;-61
2021/01/24 05:09:33;;;;;;;23.40;19.00;;;;;;;4.84;74.88;96429.50;1805735;78;21335;-60
2021/01/24 05:12:02;;;;;;;20.70;17.05;;;;;;;4.83;74.84;96426.50;1805656;79;20937;-61
2021/01/24 05:14:30;;;;;;;21.75;17.65;;;;;;;4.83;75.01;96419.35;1805709;79;20916;-61
2021/01/24 05:16:58;;;;;;;25.25;19.45;;;;;;;4.85;75.16;96418.73;1805707;79;20901;-62
2021/01/24 05:19:25;;;;;;;31.20;23.90;;;;;;;4.87;75.26;96413.30;1805768;79;21090;-61
2021/01/24 05:21:53;;;;;;;28.45;22.77;;;;;;;4.89;75.31;96418.87;1805734;79;22271;-60
2021/01/24 05:24:21;;;;;;;30.08;22.32;;;;;;;4.91;75.34;96411.27;1805701;79;20936;-61
2021/01/24 05:26:49;;;;;;;23.02;18.77;;;;;;;4.91;75.32;96413.44;1805751;79;20874;-61
2021/01/24 05:29:25;;;;;;;18.25;16.32;;;;;;;4.92;75.35;96412.48;1805658;79;20873;-62
2021/01/24 05:31:54;;;;;;;18.77;15.10;;;;;;;4.94;75.45;96417.19;1805713;79;21019;-62
2021/01/24 05:34:24;;;;;;;20.12;16.42;;;;;;;4.95;75.72;96413.57;1805830;79;22281;-62
2021/01/24 05:36:52;;;;;;;25.90;18.75;;;;;;;4.99;75.88;96404.36;1805660;79;20933;-61
2021/01/24 05:39:20;;;;;;;21.77;14.15;;;;;;;5.02;75.88;96412.11;1805648;79;20936;-61
2021/01/24 05:41:50;;;;;;;25.32;15.50;;;;;;;5.05;76.15;96413.20;1805708;79;20921;-62
2021/01/24 05:44:20;;;;;;;22.70;14.93;;;;;;;5.11;76.25;96417.66;1805763;79;20999;-62
2021/01/24 05:46:48;;;;;;;17.65;12.90;;;;;;;5.14;76.33;96405.45;1805447;79;21333;-61
2021/01/24 05:49:29;;;;;;;28.52;19.85;;;;;;;5.21;76.20;96419.97;1805647;79;20968;-62
2021/01/24 05:52:05;;;;;;;28.10;21.23;;;;;;;5.26;75.90;96415.12;1806143;79;21352;-62
2021/01/24 05:54:44;;;;;;;31.73;22.35;;;;;;;5.29;75.29;96416.20;1805665;79;20999;-63
2021/01/24 05:57:15;;;;;;;30.62;21.90;;;;;;;5.30;74.96;96404.61;1805717;79;21354;-62
2021/01/24 05:59:57;;;;;;;32.45;23.67;;;;;;;5.31;74.65;96409.43;1805755;79;21360;-61
2021/01/24 06:02:26;;;;;;;27.25;21.82;;;;;;;5.27;74.46;96407.51;1805631;79;20996;-62
2021/01/24 06:04:55;;;;;;;30.37;22.60;;;;;;;5.24;74.31;96407.75;1805781;79;20983;-62
2021/01/24 06:07:23;;;;;;;32.17;23.52;;;;;;;5.21;74.18;96413.31;1805651;79;21011;-62
2021/01/24 06:09:52;;;;;;;34.05;25.25;;;;;;;5.17;74.24;96411.86;1805714;79;20909;-61
2021/01/24 06:12:23;;;;;;;43.33;31.52;;;;;;;5.12;74.17;96415.38;1805746;79;21189;-62
2021/01/24 06:14:51;;;;;;;52.53;34.15;;;;;;;5.06;74.24;96412.23;1805608;79;20932;-61
2021/01/24 06:17:29;;;;;;;39.23;27.00;;;;;;;5.01;74.34;96425.06;1805623;79;21535;-62
2021/01/24 06:20:01;;;;;;;34.40;25.62;;;;;;;4.96;74.33;96413.91;1805432;79;20901;-60
2021/01/24 06:22:51;;;;;;;38.13;28.27;;;;;;;4.93;74.36;96417.31;1805340;79;20873;-61
2021/01/24 06:25:44;;;;;;;37.88;27.55;;;;;;;4.86;74.34;96416.95;1804659;79;21381;-61
2021/01/24 06:28:21;;;;;;;33.28;27.20;;;;;;;4.79;74.44;96421.04;1805140;79;21003;-62
2021/01/24 06:30:49;;;;;;;42.10;28.32;;;;;;;4.70;74.58;96427.44;1805556;79;20924;-61
2021/01/24 06:33:21;;;;;;;34.53;26.65;;;;;;;4.63;74.70;96426.20;1805675;79;21406;-61
2021/01/24 06:36:00;;;;;;;34.63;25.88;;;;;;;4.58;74.99;96428.38;1805788;79;21323;-61
2021/01/24 06:38:38;;;;;;;32.45;25.82;;;;;;;4.52;75.22;96426.19;1782984;79;21375;-61
2021/01/24 06:41:11;;;;;;;33.28;24.50;;;;;;;4.46;75.50;96420.01;1805597;79;20964;-61
2021/01/24 06:43:46;;;;;;;32.03;26.37;;;;;;;4.41;75.81;96420.84;1805921;79;20941;-61
2021/01/24 06:46:31;;;;;;;30.95;25.85;;;;;;;4.37;76.07;96422.03;1805568;79;21018;-63
2021/01/24 06:48:58;;;;;;;34.00;25.52;;;;;;;4.32;76.25;96420.59;1805772;79;20905;-61
2021/01/24 06:51:37;;;;;;;32.33;24.02;;;;;;;4.30;76.37;96413.69;1805867;79;21367;-61
2021/01/24 06:54:19;;;;;;;30.23;25.35;;;;;;;4.29;76.54;96412.85;1805780;79;21004;-61
2021/01/24 06:56:48;;;;;;;29.87;23.30;;;;;;;4.27;76.75;96418.77;1805874;79;21040;-61
2021/01/24 06:59:15;;;;;;;30.40;23.70;;;;;;;4.26;76.85;96410.42;1805693;79;20968;-61
2021/01/24 07:01:43;;;;;;;44.48;29.65;;;;;;;4.25;76.96;96406.06;1731416;79;20996;-61
2021/01/24 07:04:30;;;;;;;43.15;28.55;;;;;;;4.24;77.04;96407.50;1805852;79;21347;-62
2021/01/24 07:07:00;;;;;;;34.03;25.12;;;;;;;4.26;77.16;96414.41;1805820;79;20897;-62
2021/01/24 07:09:33;;;;;;;45.05;27.90;;;;;;;4.28;77.28;96407.65;1780993;79;20944;-61
2021/01/24 07:12:04;;;;;;;58.83;32.40;;;;;;;4.29;77.38;96410.19;1805853;79;21019;-62
2021/01/24 07:14:41;;;;;;;65.37;35.17;;;;;;;4.31;77.39;96404.77;1805778;79;20900;-61
2021/01/24 07:17:18;;;;;;;69.60;37.33;;;;;;;4.33;77.41;96408.98;1805839;79;21355;-61
2021/01/24 07:19:55;;;;;;;39.05;24.85;;;;;;;4.38;77.46;96405.13;1805759;79;20929;-61
2021/01/24 07:22:25;;;;;;;22.02;17.65;;;;;;;4.41;77.53;96412.38;1805787;79;20968;-62
2021/01/24 07:24:53;;;;;;;18.27;15.83;;;;;;;4.46;77.66;96408.91;1805883;79;21346;-61
2021/01/24 07:27:26;;;;;;;21.33;15.03;;;;;;;4.55;77.68;96417.14;1805900;79;20897;-61
2021/01/24 07:29:55;;;;;;;24.12;15.78;;;;;;;4.61;77.64;96408.70;1805864;79;22298;-61
2021/01/24 07:32:24;;;;;;;18.00;12.63;;;;;;;4.69;77.62;96412.44;1805843;79;21002;-60
2021/01/24 07:34:53;;;;;;;10.45;9.00;;;;;;;4.79;77.45;96411.73;1805772;79;20881;-61
2021/01/24 07:37:22;;;;;;;14.90;8.13;;;;;;;4.91;77.32;96412.60;1805720;79;20932;-61
2021/01/24 07:39:51;;;;;;;14.50;6.42;;;;;;;5.01;77.07;96405.11;1805826;79;20901;-62
2021/01/24 07:42:18;;;;;;;6.95;4.12;;;;;;;5.13;76.78;96412.59;1805923;79;21413;-61
2021/01/24 07:44:47;;;;;;;48.45;13.35;;;;;;;5.25;76.55;96413.45;1805700;79;21003;-62
2021/01/24 07:47:16;;;;;;;17.80;8.10;;;;;;;5.37;76.08;96412.44;1805760;79;21000;-62
2021/01/24 07:49:44;;;;;;;30.97;9.98;;;;;;;5.48;75.66;96408.09;1805791;79;20929;-61
2021/01/24 07:52:12;;;;;;;26.62;8.98;;;;;;;5.59;75.13;96400.07;1805862;79;20897;-62
2021/01/24 07:54:41;;;;;;;49.10;13.75;;;;;;;5.72;74.91;96403.91;1805780;79;22376;-62
2021/01/24 07:57:09;;;;;;;57.60;17.25;;;;;;;5.83;74.58;96406.53;1805713;79;20956;-62
2021/01/24 07:59:38;;;;;;;62.25;17.77;;;;;;;5.92;74.25;96403.61;1756642;79;20964;-61
2021/01/24 08:02:05;;;;;;;48.60;13.58;;;;;;;6.00;73.98;96401.19;1805674;79;21378;-62
2021/01/24 08:04:36;;;;;;;33.00;10.93;;;;;;;6.09;73.68;96415.08;1805829;79;21012;-61
2021/01/24 08:07:07;;;;;;;24.55;9.45;;;;;;;6.13;73.25;96404.54;1805798;79;21363;-61
2021/01/24 08:09:35;;;;;;;9.03;4.05;;;;;;;6.22;73.02;96415.41;1805805;79;21003;-62
2021/01/24 08:12:11;;;;;;;9.20;4.72;;;;;;;6.27;72.62;96416.69;1805726;79;21089;-61
2021/01/24 08:14:41;;;;;;;14.30;12.15;;;;;;;6.33;72.29;96416.67;1805802;79;20901;-66
2021/01/24 08:17:13;;;;;;;12.78;10.43;;;;;;;6.37;72.05;96415.45;1804361;79;20928;-61
2021/01/24 08:19:42;;;;;;;14.87;12.58;;;;;;;6.36;72.12;96405.75;1805899;79;22256;-61
2021/01/24 08:22:10;;;;;;;14.70;13.20;;;;;;;6.34;72.21;96409.05;1805665;79;20992;-61
2021/01/24 08:24:40;;;;;;;15.20;12.18;;;;;;;6.32;72.31;96404.30;1805754;79;20913;-62
2021/01/24 08:27:09;;;;;;;13.00;11.60;;;;;;;6.29;72.43;96407.23;1805780;79;20921;-62
2021/01/24 08:29:37;;;;;;;14.43;10.35;;;;;;;6.25;72.54;96405.81;1756176;79;21003;-62
2021/01/24 08:32:06;;;;;;;17.60;11.12;;;;;;;6.24;72.67;96402.78;1805818;79;21400;-62
2021/01/24 08:34:34;;;;;;;28.38;12.40;;;;;;;6.21;72.81;96399.04;1805826;79;21414;-62
2021/01/24 08:37:04;;;;;;;43.63;13.32;;;;;;;6.20;72.56;96400.03;1805707;79;20901;-61
2021/01/24 08:39:32;;;;;;;33.50;8.75;;;;;;;6.23;72.46;96399.74;1805721;79;20924;-62
2021/01/24 08:42:05;;;;;;;17.17;6.35;;;;;;;6.24;72.16;96401.45;1805765;79;20897;-62
2021/01/24 08:44:32;;;;;;;12.05;4.03;;;;;;;6.28;71.97;96397.06;1782378;79;21361;-62
2021/01/24 08:47:05;;;;;;;13.03;4.95;;;;;;;6.34;71.70;96403.72;1805811;79;21358;-61
2021/01/24 08:49:33;;;;;;;63.08;18.15;;;;;;;6.40;71.32;96402.33;1805727;79;21066;-62
2021/01/24 08:52:03;;;;;;;12.95;4.90;;;;;;;6.47;71.22;96405.69;1805853;79;20928;-61
2021/01/24 08:54:36;;;;;;;3.35;1.62;;;;;;;6.54;70.92;96394.00;1805836;79;20897;-61
2021/01/24 08:57:18;;;;;;;1.82;1.30;;;;;;;6.67;70.17;96393.83;1805890;79;26402;-62
2021/01/24 08:59:54;;;;;;;1.60;1.50;;;;;;;6.67;70.17;96393.83;1805813;79;20995;-62
2021/01/24 09:02:35;;;;;;;4.87;3.35;;;;;;;6.76;70.19;96401.02;1805774;79;20940;-61
2021/01/24 09:05:11;;;;;;;2.90;2.00;;;;;;;6.80;70.21;96394.45;1805735;79;20929;-62
2021/01/24 09:07:42;;;;;;;2.12;1.37;;;;;;;6.85;69.70;96394.89;1805705;79;20932;-61
2021/01/24 09:10:17;;;;;;;3.83;1.52;;;;;;;6.92;69.71;96390.36;1805655;79;21184;-62
2021/01/24 09:12:47;;;;;;;1.65;1.10;;;;;;;6.96;69.69;96377.12;1805768;79;21003;-61
2021/01/24 09:15:16;;;;;;;1.67;0.93;;;;;;;7.00;69.66;96374.05;1805739;79;20928;-61
2021/01/24 09:17:43;;;;;;;1.00;0.80;;;;;;;7.03;69.76;96372.91;1805766;79;21007;-62
2021/01/24 09:20:12;;;;;;;0.78;0.70;;;;;;;7.06;69.64;96375.32;1805732;79;20909;-62
2021/01/24 09:22:40;;;;;;;2.15;0.88;;;;;;;7.10;69.44;96375.41;1805835;79;22260;-62
2021/01/24 09:25:09;;;;;;;1.30;0.90;;;;;;;7.14;69.54;96375.98;1805579;79;20940;-61
2021/01/24 09:27:37;;;;;;;1.25;0.70;;;;;;;7.17;69.47;96373.91;1805722;79;20976;-61
2021/01/24 09:30:08;;;;;;;5.80;1.98;;;;;;;7.22;69.46;96378.35;1805652;79;20988;-62
2021/01/24 09:32:35;;;;;;;1.62;1.10;;;;;;;7.27;69.43;96377.08;1805773;79;20968;-63
2021/01/24 09:35:04;;;;;;;2.37;1.40;;;;;;;7.32;69.48;96377.54;1805696;79;21359;-62
2021/01/24 09:37:33;;;;;;;3.77;2.37;;;;;;;7.38;69.23;96366.31;1805624;79;21012;-61
2021/01/24 09:40:00;;;;;;;5.05;2.87;;;;;;;7.44;69.23;96372.42;1805659;79;20877;-62
2021/01/24 09:42:28;;;;;;;4.80;2.42;;;;;;;7.49;69.16;96380.89;1805678;79;20984;-62
2021/01/24 09:44:56;;;;;;;7.78;4.12;;;;;;;7.54;69.12;96371.97;1805759;79;20999;-61
2021/01/24 09:47:23;;;;;;;4.53;2.22;;;;;;;7.59;69.03;96365.71;1805732;79;21340;-61
2021/01/24 09:49:50;;;;;;;1.90;1.05;;;;;;;7.65;68.76;96364.83;1805667;79;20885;-62
2021/01/24 09:52:18;;;;;;;1.77;1.17;;;;;;;7.68;68.55;96359.18;1805729;79;20948;-62
2021/01/24 09:54:46;;;;;;;1.98;1.62;;;;;;;7.73;68.41;96355.63;1805618;79;20976;-61
2021/01/24 09:57:15;;;;;;;2.05;1.85;;;;;;;7.80;68.28;96352.73;1805780;79;20984;-61
2021/01/24 09:59:42;;;;;;;1.98;1.57;;;;;;;7.84;68.14;96354.16;1805686;79;21376;-62
2021/01/24 10:02:10;;;;;;;2.95;1.80;;;;;;;7.90;67.95;96363.45;1805718;79;20936;-62
2021/01/24 10:04:38;;;;;;;4.72;2.40;;;;;;;7.95;67.56;96363.37;1805654;79;21482;-61
2021/01/24 10:07:06;;;;;;;6.67;2.12;;;;;;;8.00;67.29;96362.11;1805635;79;21005;-62
2021/01/24 10:09:33;;;;;;;4.20;2.15;;;;;;;8.04;67.22;96359.02;1805639;79;20972;-62
2021/01/24 10:12:01;;;;;;;2.60;2.02;;;;;;;8.08;67.20;96359.07;1805749;79;21350;-62
2021/01/24 10:14:29;;;;;;;3.98;2.22;;;;;;;8.12;67.06;96356.98;1805660;79;20912;-61
2021/01/24 10:16:56;;;;;;;5.78;3.30;;;;;;;8.16;66.48;96354.86;1805662;79;20929;-61
2021/01/24 10:19:23;;;;;;;3.90;2.87;;;;;;;8.19;66.27;96351.91;1805545;79;20999;-62
2021/01/24 10:21:52;;;;;;;4.40;3.30;;;;;;;8.21;66.26;96356.11;1805668;77;20909;-61
2021/01/24 10:24:19;;;;;;;3.87;3.00;;;;;;;8.26;65.95;96353.88;1805666;79;21414;-61
2021/01/24 10:26:47;;;;;;;5.58;3.35;;;;;;;8.30;65.02;96347.23;1805714;79;20984;-61
2021/01/24 10:29:16;;;;;;;4.90;3.33;;;;;;;8.35;64.86;96340.13;1805666;79;20992;-62
2021/01/24 10:31:43;;;;;;;2.67;2.47;;;;;;;8.39;64.91;96337.52;1805635;79;20905;-62
2021/01/24 10:34:10;;;;;;;6.70;3.08;;;;;;;8.43;63.97;96338.07;1805728;79;20916;-62
2021/01/24 10:36:39;;;;;;;3.08;2.42;;;;;;;8.47;63.72;96340.85;1805784;79;22270;-62
2021/01/24 10:39:07;;;;;;;3.15;2.67;;;;;;;8.50;63.25;96345.41;1805575;79;21481;-61
2021/01/24 10:41:34;;;;;;;2.67;2.20;;;;;;;8.55;63.17;96336.13;1805703;79;20968;-62
2021/01/24 10:44:02;;;;;;;2.77;2.17;;;;;;;8.58;62.95;96339.84;1805664;79;20917;-61
2021/01/24 10:46:33;;;;;;;4.05;2.72;;;;;;;8.62;62.55;96346.08;1805680;79;20924;-61
2021/01/24 10:49:02;;;;;;;4.28;2.83;;;;;;;8.65;63.38;96344.95;1805662;79;21180;-61
2021/01/24 10:51:30;;;;;;;4.17;3.10;;;;;;;8.68;63.46;96332.63;1805649;79;20929;-61
2021/01/24 10:53:58;;;;;;;9.83;2.87;;;;;;;8.70;62.76;96325.79;1805640;79;20929;-61
2021/01/24 10:56:26;;;;;;;3.30;2.25;;;;;;;8.75;62.67;96332.41;1805670;79;20968;-62
2021/01/24 10:58:55;;;;;;;9.83;3.58;;;;;;;8.79;62.49;96340.98;1805589;79;20984;-62
2021/01/24 11:01:22;;;;;;;3.90;2.80;;;;;;;8.81;61.98;96345.69;1805738;79;21393;-61
2021/01/24 11:03:49;;;;;;;4.60;2.62;;;;;;;8.86;61.21;96350.09;1805640;79;20948;-62
2021/01/24 11:06:18;;;;;;;6.72;3.22;;;;;;;8.89;61.22;96356.50;1805657;79;20909;-62
2021/01/24 11:08:45;;;;;;;5.20;3.08;;;;;;;8.92;61.08;96354.87;1805658;79;20965;-61
2021/01/24 11:11:12;;;;;;;4.92;2.22;;;;;;;8.96;61.38;96326.82;1805755;79;20904;-61
2021/01/24 11:13:40;;;;;;;3.62;2.20;;;;;;;9.00;60.68;96346.97;1805650;79;21437;-62
2021/01/24 11:16:07;;;;;;;5.17;3.25;;;;;;;9.04;60.70;96342.98;1805592;79;21001;-62
2021/01/24 11:18:34;;;;;;;2.98;2.62;;;;;;;9.07;60.69;96343.70;1805594;79;20984;-61
2021/01/24 11:21:04;;;;;;;3.52;2.37;;;;;;;9.12;60.79;96354.81;1805757;79;20916;-61
2021/01/24 11:23:32;;;;;;;5.53;3.17;;;;;;;9.12;60.10;96354.81;1805697;79;20920;-62
2021/01/24 11:26:00;;;;;;;6.17;3.00;;;;;;;9.13;60.00;96357.81;1805610;79;21380;-61
2021/01/24 11:28:28;;;;;;;5.28;2.87;;;;;;;9.12;60.27;96360.17;1805583;79;20976;-61
2021/01/24 11:30:55;;;;;;;3.25;2.10;;;;;;;9.12;60.27;96362.84;1805746;79;20988;-61
2021/01/24 11:33:23;;;;;;;2.72;2.30;;;;;;;9.09;60.22;96360.46;1805741;79;21347;-62
2021/01/24 11:35:53;;;;;;;4.60;2.50;;;;;;;9.10;60.44;96355.43;1805664;79;21015;-62
2021/01/24 11:38:20;;;;;;;2.72;2.02;;;;;;;9.09;60.50;96359.13;1805768;79;21232;-62
2021/01/24 11:40:48;;;;;;;3.60;2.35;;;;;;;9.08;60.45;96355.61;1805728;79;20992;-61